Graham, WA

9:46 AM PST on February 13, 2016 (GMT -0800)
Graham, WA 98338 | | Change Station
CLOSE
Current Station
Personal Weather Station
Location: Graham, WA
Elevation: 740 ft
Nearby Weather Stations

Elev 740 ft 47.02 °N, 122.31 °W | Updated 7 seconds ago

Clear
Clear
43.3 °F
Feels Like 43 °F
N
0.0
Wind Variable Wind from East
Gusts 0.0 mph

Today
High -- | Low -- °F
--% Chance of Precip.
Yesterday
High -- | Low -- °F
Precip. -- in
Pressure 30.29 in
Visibility 10.0 miles
Clouds Clear
Windchill 43 °F
Dew Point 43 °F
Humidity 98%
Rainfall 0.17 in
Snow Depth Not available.
7:17 AM 5:29 PM
Waxing Crescent, 32% visible
METAR KPLU 131735Z AUTO 00000KT 10SM CLR 09/05 A3029 RMK AO2
Pressure 30.29 in
Visibility 10.0 miles
Clouds Clear
Windchill 43 °F
Dew Point 43 °F
Humidity 98%
Rainfall 0.17 in
Snow Depth Not available.
7:17 AM 5:29 PM
Waxing Crescent, 32% visible
METAR KPLU 131735Z AUTO 00000KT 10SM CLR 09/05 A3029 RMK AO2

10-Day Weather Forecast

Almanac

Astronomy

Feb. 13, 2016 Rise Set
Actual Time
Civil Twilight
Nautical Twilight
Astronomical Twilight
Moon
Length of Visible Light
Length of Day
Tomorrow will be .
, % of the Moon is Illuminated

Today's Extremes

State Highs State Lows

Community

WunderPhotos

Upload Photos

1,892,623 photos uploaded!

WunderBlog® & News

Nearby

Air Quality

  Air Quality AQ Index Pollutant
Not available.

Snow Depth

Station Depth Elevation

Earthquake Activity

City Distance Mag. Time & Date
Minimum magnitude displayed is 2.5.

Coastal Water Temperatures

Place Temperature

Stations

Nearby Weather Stations

Station Location Temp. Windchill Dew Point Humidity Wind Precip. Elev Updated Type
                   

Watches & Warnings

There are currently no watches in effect.